KHXD

Hilton Head Airport

Hilton Head Island, South Carolina, USA
METAR KHXD 241150Z 17006KT 9SM SCT020 18/18 A3027
Observed Flight Rules
Feb-24 @ 11:50 UTC (33 minutes ago) Visual Flight Rules
Wind Visibility Clouds
170° at 6 knots 9 miles
  • Scattered at 2,000' AGL
Temperatures Readings
Current 18°C / 64°F
Dewpoint 18°C / 64°F
Humidity 100%
Altimeter 30.27" Hg
Pressure 1025 hPa
Elevation 6
METAR KHXD 241150Z 17006KT 9SM SCT020 18/18 A3027
Observed Flight Rules
Feb-24 @ 11:50 UTC
(33 minutes ago)
VFR
Wind Visibility
170° at 6 knots 9 miles
Clouds
  • Scattered at 2,000' AGL
Temperature Dewpoint
18°C / 64°F 18°C / 64°F
Humidity Altimeter Pressure
100% 30.27" Hg 1025 hPa